createdAt,value
2023-02-17T00:00:19.918Z,8.65
2023-02-17T00:01:31.942Z,8.66
2023-02-17T00:02:35.497Z,8.67
2023-02-17T00:03:38.820Z,8.69
2023-02-17T00:04:41.162Z,8.70
2023-02-17T00:05:43.358Z,8.73
2023-02-17T00:06:45.500Z,8.69
2023-02-17T00:07:48.701Z,8.69
2023-02-17T00:08:52.139Z,8.71
2023-02-17T00:09:54.268Z,8.75
2023-02-17T00:11:00.547Z,8.75
2023-02-17T00:12:03.569Z,8.78
2023-02-17T00:13:05.923Z,8.78
2023-02-17T00:14:13.264Z,8.76
2023-02-17T00:15:15.778Z,8.77
2023-02-17T00:16:20.601Z,8.75
2023-02-17T00:17:22.883Z,8.77
2023-02-17T00:18:25.529Z,8.78
2023-02-17T00:19:27.778Z,8.79
2023-02-17T00:20:29.957Z,8.80
2023-02-17T00:21:32.696Z,8.80
2023-02-17T00:22:34.919Z,8.80
2023-02-17T00:23:37.110Z,8.81
2023-02-17T00:24:40.800Z,8.80
2023-02-17T00:25:43.164Z,8.80
2023-02-17T00:26:48.165Z,8.81
2023-02-17T00:27:50.455Z,8.82
2023-02-17T00:28:52.903Z,8.82
2023-02-17T00:29:55.222Z,8.76
2023-02-17T00:30:57.627Z,8.72
2023-02-17T00:31:59.987Z,8.70
2023-02-17T00:33:04.521Z,8.71
2023-02-17T00:34:08.900Z,8.72
2023-02-17T00:35:12.198Z,8.72
2023-02-17T00:36:19.644Z,8.75
2023-02-17T00:37:22.011Z,8.76
2023-02-17T00:38:24.203Z,8.75
2023-02-17T00:39:26.399Z,8.73
2023-02-17T00:40:28.614Z,8.75
2023-02-17T00:41:30.758Z,8.71
2023-02-17T00:42:32.964Z,8.71
2023-02-17T00:43:35.548Z,8.71
2023-02-17T00:44:38.052Z,8.70
2023-02-17T00:45:40.273Z,8.72
2023-02-17T00:46:42.520Z,8.75
2023-02-17T00:47:44.699Z,8.76
2023-02-17T00:48:48.058Z,8.76
2023-02-17T00:49:50.279Z,8.77
2023-02-17T00:50:52.573Z,8.79
2023-02-17T00:51:54.855Z,8.81
2023-02-17T00:52:57.046Z,8.81
2023-02-17T00:53:59.227Z,8.83
2023-02-17T00:55:01.427Z,8.83
2023-02-17T00:56:05.103Z,8.84
2023-02-17T00:57:07.566Z,8.86
2023-02-17T00:58:09.786Z,8.87
2023-02-17T00:59:13.049Z,8.88
2023-02-17T01:00:15.801Z,8.90
2023-02-17T01:01:18.083Z,8.91
2023-02-17T01:02:20.275Z,8.93
2023-02-17T01:03:23.517Z,8.93
2023-02-17T01:04:26.919Z,8.95
2023-02-17T01:05:29.077Z,8.95
2023-02-17T01:06:35.673Z,8.96
2023-02-17T01:07:37.963Z,8.97
2023-02-17T01:08:41.316Z,8.97
2023-02-17T01:09:43.602Z,8.98
2023-02-17T01:10:47.290Z,8.99
2023-02-17T01:11:49.466Z,9.00
2023-02-17T01:12:51.622Z,9.01
2023-02-17T01:13:56.857Z,9.02
2023-02-17T01:14:59.168Z,9.02
2023-02-17T01:16:01.464Z,9.02
2023-02-17T01:17:03.809Z,9.01
2023-02-17T01:18:06.038Z,9.02
2023-02-17T01:19:12.292Z,9.03
2023-02-17T01:20:14.634Z,9.04
2023-02-17T01:21:24.914Z,9.04
2023-02-17T01:22:27.232Z,9.04
2023-02-17T01:23:30.629Z,9.06
2023-02-17T01:24:32.989Z,9.06
2023-02-17T01:25:40.361Z,9.05
2023-02-17T01:26:43.044Z,9.04
2023-02-17T01:27:47.160Z,9.06
2023-02-17T01:28:51.059Z,9.06
2023-02-17T01:29:53.303Z,9.06
2023-02-17T01:30:55.629Z,9.07
2023-02-17T01:31:58.249Z,9.08
2023-02-17T01:33:02.678Z,9.08
2023-02-17T01:34:05.699Z,9.07
2023-02-17T01:35:10.964Z,9.09
2023-02-17T01:36:16.392Z,9.09
2023-02-17T01:37:18.542Z,9.08
2023-02-17T01:38:21.996Z,9.10
2023-02-17T01:39:25.875Z,9.09
2023-02-17T01:40:28.051Z,9.10
2023-02-17T01:41:32.705Z,9.10
2023-02-17T01:42:35.747Z,9.11
2023-02-17T01:43:38.104Z,9.09
2023-02-17T01:45:18.185Z,9.09
2023-02-17T01:46:20.477Z,9.10
2023-02-17T01:47:22.705Z,9.08
2023-02-17T01:48:35.690Z,9.08
2023-02-17T01:49:41.512Z,9.08
2023-02-17T01:50:52.430Z,9.08
2023-02-17T01:52:16.376Z,9.07
2023-02-17T01:53:24.965Z,9.06
2023-02-17T01:54:47.796Z,9.06
2023-02-17T01:55:50.235Z,9.06
2023-02-17T01:56:53.244Z,9.04
2023-02-17T01:58:00.328Z,9.04
2023-02-17T01:59:07.488Z,9.05
2023-02-17T02:00:12.768Z,9.05
2023-02-17T02:01:15.265Z,9.04
2023-02-17T02:02:18.205Z,9.06
2023-02-17T02:03:21.181Z,9.07
2023-02-17T02:04:25.961Z,9.06
2023-02-17T02:05:28.679Z,9.06
2023-02-17T02:06:32.325Z,9.06
2023-02-17T02:07:39.865Z,9.06
2023-02-17T02:09:20.225Z,9.06
2023-02-17T02:10:23.621Z,9.06
2023-02-17T02:11:27.010Z,9.04
2023-02-17T02:12:37.798Z,9.03
2023-02-17T02:13:40.122Z,9.01
2023-02-17T02:14:42.457Z,9.01
2023-02-17T02:15:57.280Z,8.99
2023-02-17T02:17:09.463Z,8.99
2023-02-17T02:18:33.499Z,8.97
2023-02-17T02:20:07.832Z,9.00
2023-02-17T02:21:34.587Z,8.98
2023-02-17T02:23:04.147Z,8.95
2023-02-17T02:24:35.528Z,8.93
2023-02-17T02:26:14.756Z,8.89
2023-02-17T02:27:43.111Z,8.91
2023-02-17T02:29:33.999Z,8.91
2023-02-17T02:30:55.704Z,8.91
2023-02-17T02:32:33.103Z,8.92
2023-02-17T02:33:56.086Z,8.91
2023-02-17T02:35:06.012Z,8.86
2023-02-17T02:36:08.556Z,8.86
2023-02-17T02:37:18.264Z,8.85
2023-02-17T02:38:26.833Z,8.82
2023-02-17T02:39:38.829Z,8.78
2023-02-17T02:40:48.770Z,8.75
2023-02-17T02:41:55.622Z,8.71
2023-02-17T02:43:01.026Z,8.71
2023-02-17T02:44:15.176Z,8.73
2023-02-17T02:45:19.192Z,8.75
2023-02-17T02:46:21.614Z,8.74
2023-02-17T02:47:52.717Z,8.77
2023-02-17T02:48:59.122Z,8.79
2023-02-17T02:50:02.253Z,8.81
2023-02-17T02:51:21.088Z,8.82
2023-02-17T02:52:48.606Z,8.80
2023-02-17T02:54:11.312Z,8.81
2023-02-17T02:55:38.088Z,8.81
2023-02-17T02:56:54.035Z,8.83
2023-02-17T02:58:07.785Z,8.82
2023-02-17T02:59:34.000Z,8.80
2023-02-17T03:00:41.061Z,8.82
2023-02-17T03:02:09.193Z,8.84
2023-02-17T03:03:17.377Z,8.81
2023-02-17T03:04:36.703Z,8.84
2023-02-17T03:05:57.621Z,8.83
2023-02-17T03:07:05.034Z,8.84
2023-02-17T03:08:16.340Z,8.84
2023-02-17T03:09:23.008Z,8.85
2023-02-17T03:10:25.621Z,8.86
2023-02-17T03:11:34.101Z,8.84
2023-02-17T03:12:39.710Z,8.86
2023-02-17T03:13:42.708Z,8.83
2023-02-17T03:14:51.188Z,8.78
2023-02-17T03:15:53.810Z,8.77
2023-02-17T03:16:56.051Z,8.78
2023-02-17T03:18:02.891Z,8.80
2023-02-17T03:19:05.316Z,8.81
2023-02-17T03:20:08.557Z,8.78
2023-02-17T03:21:16.000Z,8.76
2023-02-17T03:22:32.414Z,8.79
2023-02-17T03:23:34.655Z,8.75
2023-02-17T03:24:37.055Z,8.72
2023-02-17T03:25:42.095Z,8.71
2023-02-17T03:26:45.841Z,8.76
2023-02-17T03:27:48.693Z,8.77
2023-02-17T03:28:50.998Z,8.77
2023-02-17T03:29:53.876Z,8.76
2023-02-17T03:30:56.247Z,8.72
2023-02-17T03:31:58.678Z,8.70
2023-02-17T03:33:00.855Z,8.75
2023-02-17T03:34:03.249Z,8.69
2023-02-17T03:35:06.079Z,8.69
2023-02-17T03:36:08.461Z,8.69
2023-02-17T03:37:10.977Z,8.72
2023-02-17T03:38:13.238Z,8.72
2023-02-17T03:39:15.487Z,8.68
2023-02-17T03:40:17.921Z,8.67
2023-02-17T03:41:20.392Z,8.67
2023-02-17T03:42:23.088Z,8.66
2023-02-17T03:43:25.273Z,8.63
2023-02-17T03:44:28.059Z,8.64
2023-02-17T03:45:31.383Z,8.62
2023-02-17T03:46:33.749Z,8.59
2023-02-17T03:47:36.041Z,8.59
2023-02-17T03:48:38.893Z,8.59
2023-02-17T03:49:41.078Z,8.59
2023-02-17T03:50:43.435Z,8.59
2023-02-17T03:51:46.825Z,8.61
2023-02-17T03:52:49.088Z,8.61
2023-02-17T03:53:52.585Z,8.60
2023-02-17T03:54:54.844Z,8.58
2023-02-17T03:55:57.054Z,8.60
2023-02-17T03:57:01.251Z,8.59
2023-02-17T03:58:03.974Z,8.61
2023-02-17T03:59:07.432Z,8.60
2023-02-17T04:00:10.305Z,8.60
2023-02-17T04:01:18.208Z,8.63
2023-02-17T04:02:20.542Z,8.65
2023-02-17T04:03:23.096Z,8.61
2023-02-17T04:04:26.768Z,8.64
2023-02-17T04:05:28.953Z,8.63
2023-02-17T04:06:32.157Z,8.64
2023-02-17T04:07:34.677Z,8.62
2023-02-17T04:08:37.197Z,8.63
2023-02-17T04:09:39.482Z,8.61
2023-02-17T04:10:41.679Z,8.58
2023-02-17T04:11:44.153Z,8.59
2023-02-17T04:12:46.437Z,8.57
2023-02-17T04:13:48.812Z,8.53
2023-02-17T04:14:51.024Z,8.55
2023-02-17T04:15:54.408Z,8.52
2023-02-17T04:16:56.919Z,8.52
2023-02-17T04:17:59.293Z,8.55
2023-02-17T04:19:04.123Z,8.58
2023-02-17T04:20:08.296Z,8.59
2023-02-17T04:21:10.573Z,8.57
2023-02-17T04:22:12.865Z,8.58
2023-02-17T04:23:15.788Z,8.57
2023-02-17T04:24:18.225Z,8.51
2023-02-17T04:25:22.230Z,8.49
2023-02-17T04:26:24.375Z,8.50
2023-02-17T04:27:26.573Z,8.50
2023-02-17T04:28:28.844Z,8.44
2023-02-17T04:29:31.976Z,8.42
2023-02-17T04:30:35.000Z,8.44
2023-02-17T04:31:37.675Z,8.44
2023-02-17T04:32:39.902Z,8.45
2023-02-17T04:33:42.110Z,8.44
2023-02-17T04:34:44.363Z,8.43
2023-02-17T04:35:47.650Z,8.43
2023-02-17T04:36:52.609Z,8.45
2023-02-17T04:37:55.178Z,8.46
2023-02-17T04:38:57.696Z,8.46
2023-02-17T04:39:59.906Z,8.46
2023-02-17T04:41:02.371Z,8.48
2023-02-17T04:42:06.885Z,8.49
2023-02-17T04:43:09.835Z,8.49
2023-02-17T04:44:12.063Z,8.42
2023-02-17T04:45:14.291Z,8.39
2023-02-17T04:46:16.562Z,8.32
2023-02-17T04:47:18.808Z,8.33
2023-02-17T04:48:21.270Z,8.33
2023-02-17T04:49:23.476Z,8.30
2023-02-17T04:50:25.747Z,8.31
2023-02-17T04:51:28.029Z,8.30
2023-02-17T04:52:30.605Z,8.27
2023-02-17T04:53:32.890Z,8.30
2023-02-17T04:54:35.272Z,8.26
2023-02-17T04:55:38.484Z,8.25
2023-02-17T04:56:40.721Z,8.17
2023-02-17T04:57:42.893Z,8.13
2023-02-17T04:58:45.097Z,8.09
2023-02-17T04:59:47.359Z,8.09
2023-02-17T05:00:50.793Z,8.10
2023-02-17T05:01:53.152Z,8.09
2023-02-17T05:02:56.331Z,8.13
2023-02-17T05:03:59.605Z,8.15
2023-02-17T05:05:02.038Z,8.17
2023-02-17T05:06:04.871Z,8.16
2023-02-17T05:07:07.358Z,8.15
2023-02-17T05:08:09.882Z,8.12
2023-02-17T05:09:13.136Z,8.12
2023-02-17T05:10:17.636Z,8.10
2023-02-17T05:11:21.195Z,8.11
2023-02-17T05:12:24.681Z,8.13
2023-02-17T05:13:27.744Z,8.14
2023-02-17T05:14:29.996Z,8.10
2023-02-17T05:15:34.729Z,8.11
2023-02-17T05:16:37.256Z,8.10
2023-02-17T05:17:40.464Z,8.12
2023-02-17T05:18:42.668Z,8.10
2023-02-17T05:19:45.686Z,8.07
2023-02-17T05:20:49.676Z,8.10
2023-02-17T05:21:53.165Z,8.12
2023-02-17T05:22:55.444Z,8.15
2023-02-17T05:23:57.814Z,8.13
2023-02-17T05:25:01.240Z,8.15
2023-02-17T05:26:03.915Z,8.11
2023-02-17T05:27:06.493Z,8.10
2023-02-17T05:28:08.871Z,8.13
2023-02-17T05:29:11.410Z,8.16
2023-02-17T05:30:14.039Z,8.17
2023-02-17T05:31:17.420Z,8.16
2023-02-17T05:32:22.245Z,8.17
2023-02-17T05:33:24.466Z,8.15
2023-02-17T05:34:28.998Z,8.17
2023-02-17T05:35:31.823Z,8.15
2023-02-17T05:36:34.924Z,8.18
2023-02-17T05:37:37.178Z,8.20
2023-02-17T05:38:42.454Z,8.19
2023-02-17T05:39:44.689Z,8.18
2023-02-17T05:40:47.019Z,8.16
2023-02-17T05:41:49.797Z,8.15
2023-02-17T05:42:52.596Z,8.13
2023-02-17T05:43:54.800Z,8.16
2023-02-17T05:44:57.030Z,8.16
2023-02-17T05:46:04.046Z,8.16
2023-02-17T05:47:06.424Z,8.17
2023-02-17T05:48:08.703Z,8.16
2023-02-17T05:49:10.943Z,8.20
2023-02-17T05:50:13.165Z,8.17
2023-02-17T05:51:17.383Z,8.19
2023-02-17T05:52:20.251Z,8.16
2023-02-17T05:53:22.500Z,8.21
2023-02-17T05:54:24.842Z,8.21
2023-02-17T05:55:27.123Z,8.25
2023-02-17T05:56:29.504Z,8.26
2023-02-17T05:57:32.288Z,8.27
2023-02-17T05:58:34.632Z,8.30
2023-02-17T05:59:36.839Z,8.28
2023-02-17T06:00:39.101Z,8.31
2023-02-17T06:01:41.261Z,8.28
2023-02-17T06:02:43.694Z,8.23
2023-02-17T06:03:46.113Z,8.24
2023-02-17T06:04:48.821Z,8.29
2023-02-17T06:05:51.036Z,8.30
2023-02-17T06:06:53.250Z,8.31
2023-02-17T06:07:55.589Z,8.35
2023-02-17T06:09:00.708Z,8.38
2023-02-17T06:10:03.370Z,8.39
2023-02-17T06:11:05.626Z,8.43
2023-02-17T06:12:08.142Z,8.42
2023-02-17T06:13:12.009Z,8.39
2023-02-17T06:14:14.374Z,8.40
2023-02-17T06:15:16.984Z,8.39
2023-02-17T06:16:19.210Z,8.42
2023-02-17T06:17:21.923Z,8.40
2023-02-17T06:18:24.270Z,8.38
2023-02-17T06:19:26.659Z,8.38
2023-02-17T06:20:28.891Z,8.36
2023-02-17T06:21:32.120Z,8.34
2023-02-17T06:22:36.211Z,8.35
2023-02-17T06:23:38.412Z,8.35
2023-02-17T06:24:40.718Z,8.38
2023-02-17T06:25:43.126Z,8.41
2023-02-17T06:26:45.397Z,8.44
2023-02-17T06:27:47.748Z,8.40
2023-02-17T06:28:51.066Z,8.38
2023-02-17T06:29:53.324Z,8.39
2023-02-17T06:30:55.603Z,8.35
2023-02-17T06:32:00.216Z,8.28
2023-02-17T06:33:02.507Z,8.26
2023-02-17T06:34:06.755Z,8.32
2023-02-17T06:35:09.210Z,8.33
2023-02-17T06:36:11.737Z,8.30
2023-02-17T06:37:13.901Z,8.30
2023-02-17T06:38:16.180Z,8.27
2023-02-17T06:39:18.348Z,8.29
2023-02-17T06:40:20.628Z,8.28
2023-02-17T06:41:22.776Z,8.29
2023-02-17T06:42:25.351Z,8.28
2023-02-17T06:43:27.524Z,8.26
2023-02-17T06:44:30.014Z,8.31
2023-02-17T06:45:32.277Z,8.34
2023-02-17T06:46:34.979Z,8.35
2023-02-17T06:47:37.161Z,8.36
2023-02-17T06:48:42.961Z,8.34
2023-02-17T06:49:45.215Z,8.34
2023-02-17T06:50:50.526Z,8.36
2023-02-17T06:51:52.872Z,8.36
2023-02-17T06:52:55.076Z,8.34
2023-02-17T06:53:57.522Z,8.37
2023-02-17T06:54:59.751Z,8.36
2023-02-17T06:56:02.300Z,8.30
2023-02-17T06:57:04.553Z,8.33
2023-02-17T06:58:08.500Z,8.34
2023-02-17T06:59:10.765Z,8.35
2023-02-17T07:00:13.336Z,8.36
2023-02-17T07:01:24.320Z,8.37
2023-02-17T07:02:28.056Z,8.37
2023-02-17T07:03:32.123Z,8.37
2023-02-17T07:04:34.454Z,8.35
2023-02-17T07:05:38.867Z,8.35
2023-02-17T07:06:41.395Z,8.37
2023-02-17T07:07:43.716Z,8.37
2023-02-17T07:08:46.379Z,8.34
2023-02-17T07:09:50.025Z,8.34
2023-02-17T07:10:53.500Z,8.36
2023-02-17T07:11:58.135Z,8.34
2023-02-17T07:13:00.828Z,8.29
2023-02-17T07:14:03.323Z,8.31
2023-02-17T07:15:05.935Z,8.32
2023-02-17T07:16:09.797Z,8.33
2023-02-17T07:17:12.234Z,8.27
2023-02-17T07:18:14.852Z,8.24
2023-02-17T07:19:17.013Z,8.22
2023-02-17T07:20:19.422Z,8.17
2023-02-17T07:21:21.670Z,8.18
2023-02-17T07:22:25.655Z,8.17
2023-02-17T07:23:28.166Z,8.17
2023-02-17T07:24:31.825Z,8.19
2023-02-17T07:25:36.063Z,8.18
2023-02-17T07:26:41.788Z,8.20
2023-02-17T07:27:44.128Z,8.27
2023-02-17T07:28:47.872Z,8.29
2023-02-17T07:29:50.037Z,8.27
2023-02-17T07:30:52.502Z,8.27
2023-02-17T07:31:56.062Z,8.26
2023-02-17T07:32:58.600Z,8.28
2023-02-17T07:34:04.501Z,8.31
2023-02-17T07:35:07.180Z,8.31
2023-02-17T07:36:15.103Z,8.37
2023-02-17T07:37:17.459Z,8.37
2023-02-17T07:38:19.973Z,8.36
2023-02-17T07:39:22.115Z,8.35
2023-02-17T07:40:25.083Z,8.27
2023-02-17T07:41:28.841Z,8.28
2023-02-17T07:42:31.626Z,8.31
2023-02-17T07:43:33.932Z,8.32
2023-02-17T07:44:38.683Z,8.33
2023-02-17T07:45:41.983Z,8.35
2023-02-17T07:46:44.157Z,8.36
2023-02-17T07:47:46.348Z,8.34
2023-02-17T07:48:48.546Z,8.31
2023-02-17T07:49:53.331Z,8.32
2023-02-17T07:50:57.067Z,8.34
2023-02-17T07:52:00.864Z,8.36
2023-02-17T07:53:03.825Z,8.39
2023-02-17T07:54:06.342Z,8.42
2023-02-17T07:55:08.748Z,8.43
2023-02-17T07:56:13.751Z,8.46
2023-02-17T07:57:16.682Z,8.46
2023-02-17T07:58:20.453Z,8.46
2023-02-17T07:59:23.708Z,8.47
2023-02-17T08:00:26.131Z,8.49
2023-02-17T08:01:30.108Z,8.48
2023-02-17T08:02:34.574Z,8.45
2023-02-17T08:03:37.924Z,8.42
2023-02-17T08:04:40.100Z,8.40
2023-02-17T08:05:44.768Z,8.42
2023-02-17T08:06:48.813Z,8.44
2023-02-17T08:08:10.997Z,8.47
2023-02-17T08:09:31.964Z,8.44
2023-02-17T08:10:52.750Z,8.44
2023-02-17T08:12:13.685Z,8.44
2023-02-17T08:13:20.030Z,8.47
2023-02-17T08:14:27.654Z,8.50
2023-02-17T08:15:33.219Z,8.48
2023-02-17T08:16:35.804Z,8.54
2023-02-17T08:17:39.596Z,8.57
2023-02-17T08:18:42.746Z,8.57
2023-02-17T08:19:49.517Z,8.55
2023-02-17T08:20:52.426Z,8.59
2023-02-17T08:21:54.780Z,8.60
2023-02-17T08:22:58.094Z,8.61
2023-02-17T08:24:00.625Z,8.62
2023-02-17T08:25:07.128Z,8.64
2023-02-17T08:26:10.413Z,8.65
2023-02-17T08:27:14.797Z,8.60
2023-02-17T08:28:17.780Z,8.58
2023-02-17T08:29:22.122Z,8.55
2023-02-17T08:30:24.354Z,8.57
2023-02-17T08:31:33.176Z,8.57
2023-02-17T08:32:35.435Z,8.54
2023-02-17T08:33:37.625Z,8.53
2023-02-17T08:34:40.028Z,8.55
2023-02-17T08:35:43.749Z,8.52
2023-02-17T08:36:46.280Z,8.51
2023-02-17T08:37:50.077Z,8.51
2023-02-17T08:38:54.041Z,8.53
2023-02-17T08:39:56.978Z,8.54
2023-02-17T08:41:00.789Z,8.59
2023-02-17T08:42:04.510Z,8.55
2023-02-17T08:43:10.184Z,8.59
2023-02-17T08:44:21.008Z,8.61
2023-02-17T08:45:24.126Z,8.64
2023-02-17T08:46:29.714Z,8.66
2023-02-17T08:47:32.624Z,8.70
2023-02-17T08:48:37.034Z,8.72
2023-02-17T08:49:40.508Z,8.69
2023-02-17T08:50:42.654Z,8.71
2023-02-17T08:51:45.629Z,8.75
2023-02-17T08:52:48.119Z,8.79
2023-02-17T08:53:54.487Z,8.80
2023-02-17T08:54:56.716Z,8.80
2023-02-17T08:55:59.090Z,8.82
2023-02-17T08:57:03.620Z,8.84
2023-02-17T08:58:05.890Z,8.85
2023-02-17T08:59:09.953Z,8.88
2023-02-17T09:00:12.545Z,8.90
2023-02-17T09:01:14.956Z,8.92
2023-02-17T09:02:18.299Z,8.91
2023-02-17T09:03:20.460Z,8.93
2023-02-17T09:04:22.905Z,8.94
2023-02-17T09:05:26.142Z,8.91
2023-02-17T09:06:41.617Z,8.92
2023-02-17T09:07:44.224Z,8.93
2023-02-17T09:08:46.444Z,8.96
2023-02-17T09:09:48.860Z,8.96
2023-02-17T09:10:51.905Z,8.95
2023-02-17T09:11:59.731Z,8.94
2023-02-17T09:13:01.985Z,8.95
2023-02-17T09:14:05.141Z,8.97
2023-02-17T09:15:09.274Z,8.98
2023-02-17T09:16:14.336Z,8.97
2023-02-17T09:17:19.566Z,8.98
2023-02-17T09:18:22.481Z,9.01
2023-02-17T09:19:26.042Z,9.00
2023-02-17T09:20:31.428Z,9.00
2023-02-17T09:21:33.849Z,9.02
2023-02-17T09:22:36.658Z,9.02
2023-02-17T09:23:39.574Z,9.01
2023-02-17T09:24:43.014Z,8.99
2023-02-17T09:25:45.543Z,9.01
2023-02-17T09:26:47.871Z,9.02
2023-02-17T09:27:50.543Z,9.07
2023-02-17T09:28:53.074Z,9.04
2023-02-17T09:29:56.319Z,9.05
2023-02-17T09:30:59.749Z,9.06
2023-02-17T09:32:02.076Z,9.10
2023-02-17T09:33:05.514Z,9.14
2023-02-17T09:34:07.714Z,9.14
2023-02-17T09:35:14.647Z,9.14
2023-02-17T09:36:21.514Z,9.19
2023-02-17T09:37:25.320Z,9.22
2023-02-17T09:38:27.575Z,9.26
2023-02-17T09:39:30.189Z,9.29
2023-02-17T09:40:43.409Z,9.29
2023-02-17T09:41:52.334Z,9.33
2023-02-17T09:42:54.989Z,9.36
2023-02-17T09:43:57.667Z,9.36
2023-02-17T09:45:09.348Z,9.42
2023-02-17T09:46:19.452Z,9.44
2023-02-17T09:47:28.556Z,9.40
2023-02-17T09:48:34.208Z,9.41
2023-02-17T09:49:45.711Z,9.39
2023-02-17T09:51:00.494Z,9.41
2023-02-17T09:52:14.817Z,9.49
2023-02-17T09:53:39.129Z,9.53
2023-02-17T09:54:59.676Z,9.56
2023-02-17T09:56:05.594Z,9.60
2023-02-17T09:57:19.761Z,9.59
2023-02-17T09:58:58.012Z,9.59
2023-02-17T10:00:09.993Z,9.61
2023-02-17T10:01:19.493Z,9.66
2023-02-17T10:02:33.758Z,9.67
2023-02-17T10:03:41.036Z,9.73
2023-02-17T10:04:47.506Z,9.73
2023-02-17T10:06:04.078Z,9.76
2023-02-17T10:07:15.137Z,9.82
2023-02-17T10:08:28.833Z,9.84
2023-02-17T10:09:36.184Z,9.86
2023-02-17T10:10:46.411Z,9.87
2023-02-17T10:11:57.275Z,9.89
2023-02-17T10:13:02.475Z,9.91
2023-02-17T10:14:15.836Z,9.93
2023-02-17T10:15:25.263Z,9.93
2023-02-17T10:16:36.979Z,9.98
2023-02-17T10:18:15.306Z,9.93
2023-02-17T10:20:01.044Z,9.97
2023-02-17T10:21:07.604Z,9.98
2023-02-17T10:22:22.235Z,10.02
2023-02-17T10:23:27.697Z,10.03
2023-02-17T10:24:30.126Z,10.02
2023-02-17T10:26:07.773Z,10.04
2023-02-17T10:27:23.189Z,10.12
2023-02-17T10:28:53.545Z,10.16
2023-02-17T10:30:24.802Z,10.08
2023-02-17T10:31:42.219Z,10.10
2023-02-17T10:33:11.939Z,10.17
2023-02-17T10:34:26.680Z,10.21
2023-02-17T10:35:53.005Z,10.21
2023-02-17T10:37:11.433Z,10.19
2023-02-17T10:38:48.825Z,10.18
2023-02-17T10:39:58.270Z,10.19
2023-02-17T10:41:03.809Z,10.20
2023-02-17T10:42:17.985Z,10.26
2023-02-17T10:43:30.158Z,10.29
2023-02-17T10:44:36.744Z,10.31
2023-02-17T10:45:45.588Z,10.33
2023-02-17T10:46:50.538Z,10.35
2023-02-17T10:47:59.483Z,10.36
2023-02-17T10:49:05.151Z,10.39
2023-02-17T10:50:21.783Z,10.40
2023-02-17T10:51:27.680Z,10.38
2023-02-17T10:52:38.379Z,10.39
2023-02-17T10:53:41.284Z,10.43
2023-02-17T10:54:55.247Z,10.45
2023-02-17T10:56:14.653Z,10.51
2023-02-17T10:57:19.734Z,10.52
2023-02-17T10:58:46.627Z,10.58
2023-02-17T10:59:49.912Z,10.59
2023-02-17T11:00:56.604Z,10.55
2023-02-17T11:02:23.222Z,10.57
2023-02-17T11:03:31.246Z,10.50
2023-02-17T11:04:42.535Z,10.52
2023-02-17T11:05:45.414Z,10.54
2023-02-17T11:06:53.897Z,10.54
2023-02-17T11:08:00.782Z,10.53
2023-02-17T11:09:07.788Z,10.48
2023-02-17T11:10:28.165Z,10.43
2023-02-17T11:11:39.088Z,10.40
2023-02-17T11:12:42.724Z,10.40
2023-02-17T11:14:01.365Z,10.42
2023-02-17T11:15:14.581Z,10.39
2023-02-17T11:16:26.690Z,10.45
2023-02-17T11:17:35.376Z,10.46
2023-02-17T11:18:45.620Z,10.44
2023-02-17T11:20:04.631Z,10.43
2023-02-17T11:21:11.394Z,10.43
2023-02-17T11:22:37.298Z,10.37
2023-02-17T11:23:53.998Z,10.37
2023-02-17T11:25:00.801Z,10.33
2023-02-17T11:26:28.130Z,10.29
2023-02-17T11:27:30.323Z,10.33
2023-02-17T11:28:35.091Z,10.36
2023-02-17T11:29:38.004Z,10.34
2023-02-17T11:30:48.910Z,10.32
2023-02-17T11:32:08.542Z,10.28
2023-02-17T11:33:20.279Z,10.32
2023-02-17T11:34:28.770Z,10.32
2023-02-17T11:35:49.078Z,10.31
2023-02-17T11:37:22.339Z,10.33
2023-02-17T11:38:28.629Z,10.27
2023-02-17T11:39:31.134Z,10.27
2023-02-17T11:40:33.733Z,10.19
2023-02-17T11:41:40.284Z,10.17
2023-02-17T11:42:42.549Z,10.20
2023-02-17T11:43:58.132Z,10.24
2023-02-17T11:45:06.202Z,10.25
2023-02-17T11:46:25.853Z,10.23
2023-02-17T11:47:52.571Z,10.26
2023-02-17T11:49:03.653Z,10.28
2023-02-17T11:50:40.143Z,10.33
2023-02-17T11:52:11.351Z,10.39
2023-02-17T11:53:31.808Z,10.45
2023-02-17T11:54:49.022Z,10.48
2023-02-17T11:56:23.895Z,10.52
2023-02-17T11:57:51.532Z,10.52
2023-02-17T11:59:03.209Z,10.53
2023-02-17T12:00:11.427Z,10.54
2023-02-17T12:01:22.481Z,10.52
2023-02-17T12:03:11.086Z,10.49
2023-02-17T12:04:21.792Z,10.51
2023-02-17T12:05:42.772Z,10.57
2023-02-17T12:07:06.749Z,10.58
2023-02-17T12:08:47.725Z,10.60
2023-02-17T12:10:01.923Z,10.62
2023-02-17T12:11:37.141Z,10.66
2023-02-17T12:13:16.984Z,10.70
2023-02-17T12:14:30.324Z,10.70
2023-02-17T12:15:54.324Z,10.73
2023-02-17T12:17:33.994Z,10.74
2023-02-17T12:18:58.708Z,10.76
2023-02-17T12:20:31.949Z,10.79
2023-02-17T12:22:01.898Z,10.82
2023-02-17T12:23:35.094Z,10.88
2023-02-17T12:24:54.699Z,10.84
2023-02-17T12:26:02.727Z,10.86
2023-02-17T12:27:16.841Z,10.83
2023-02-17T12:28:42.032Z,10.86
2023-02-17T12:30:18.923Z,10.85
2023-02-17T12:31:39.316Z,10.83
2023-02-17T12:33:12.354Z,10.80
2023-02-17T12:34:30.341Z,10.86
2023-02-17T12:35:53.005Z,10.90
2023-02-17T12:36:57.368Z,10.92
2023-02-17T12:38:10.645Z,10.96
2023-02-17T12:39:25.092Z,10.95
2023-02-17T12:40:39.047Z,10.99
2023-02-17T12:41:48.646Z,11.02
2023-02-17T12:43:00.394Z,11.05
2023-02-17T12:44:08.193Z,11.03
2023-02-17T12:45:12.952Z,11.05
2023-02-17T12:46:29.695Z,11.07
2023-02-17T12:47:52.443Z,11.06
2023-02-17T12:49:07.205Z,11.08
2023-02-17T12:50:27.559Z,11.15
2023-02-17T12:51:38.331Z,11.22
2023-02-17T12:52:44.824Z,11.25
2023-02-17T12:53:59.279Z,11.25
2023-02-17T12:55:22.191Z,11.29
2023-02-17T12:56:31.465Z,11.33
2023-02-17T12:57:53.412Z,11.37
2023-02-17T12:59:01.283Z,11.41
2023-02-17T13:00:17.079Z,11.42
2023-02-17T13:01:22.016Z,11.40
2023-02-17T13:02:28.426Z,11.45
2023-02-17T13:03:34.475Z,11.49
2023-02-17T13:04:37.209Z,11.49
2023-02-17T13:05:57.223Z,11.50
2023-02-17T13:07:32.913Z,11.49
2023-02-17T13:08:43.975Z,11.55
2023-02-17T13:09:50.488Z,11.60
2023-02-17T13:11:05.101Z,11.65
2023-02-17T13:12:25.727Z,11.66
2023-02-17T13:13:31.502Z,11.66
2023-02-17T13:14:51.112Z,11.68
2023-02-17T13:16:12.863Z,11.68
2023-02-17T13:17:30.581Z,11.71
2023-02-17T13:18:35.695Z,11.68
2023-02-17T13:19:39.617Z,11.72
2023-02-17T13:20:52.730Z,11.69
2023-02-17T13:21:57.139Z,11.68
2023-02-17T13:23:12.415Z,11.68
2023-02-17T13:24:30.572Z,11.73
2023-02-17T13:25:37.512Z,11.78
2023-02-17T13:26:42.482Z,11.79
2023-02-17T13:27:44.752Z,11.80
2023-02-17T13:28:48.389Z,11.81
2023-02-17T13:30:03.803Z,11.87
2023-02-17T13:31:21.116Z,11.84
2023-02-17T13:32:28.998Z,11.79
2023-02-17T13:33:31.682Z,11.79
2023-02-17T13:34:39.812Z,11.81
2023-02-17T13:35:42.062Z,11.83
2023-02-17T13:36:44.333Z,11.84
2023-02-17T13:37:46.802Z,11.84
2023-02-17T13:39:01.783Z,11.85
2023-02-17T13:40:17.953Z,11.89
2023-02-17T13:41:20.527Z,11.88
2023-02-17T13:42:39.506Z,11.89
2023-02-17T13:43:43.494Z,11.89
2023-02-17T13:44:47.224Z,11.89
2023-02-17T13:45:57.340Z,11.91
2023-02-17T13:47:11.726Z,11.94
2023-02-17T13:48:17.685Z,11.95
2023-02-17T13:49:24.566Z,11.92
2023-02-17T13:50:36.081Z,11.89
2023-02-17T13:51:38.329Z,11.91
2023-02-17T13:52:43.765Z,11.89
2023-02-17T13:53:50.339Z,11.90
2023-02-17T13:55:01.131Z,11.91
2023-02-17T13:56:27.853Z,11.94
2023-02-17T13:57:38.096Z,11.88
2023-02-17T13:58:43.009Z,11.90
2023-02-17T13:59:47.765Z,11.96
2023-02-17T14:00:52.253Z,11.95
2023-02-17T14:01:55.062Z,11.97
2023-02-17T14:03:16.185Z,11.96
2023-02-17T14:04:28.595Z,11.99
2023-02-17T14:05:30.784Z,11.97
2023-02-17T14:06:42.987Z,11.98
2023-02-17T14:07:50.239Z,11.99
2023-02-17T14:08:52.556Z,12.02
2023-02-17T14:09:55.756Z,12.02
2023-02-17T14:11:10.529Z,12.01
2023-02-17T14:12:23.820Z,12.01
2023-02-17T14:13:26.684Z,11.97
2023-02-17T14:14:32.523Z,12.02
2023-02-17T14:15:36.077Z,12.00
2023-02-17T14:16:41.627Z,12.01
2023-02-17T14:17:46.641Z,12.05
2023-02-17T14:19:00.592Z,12.07
2023-02-17T14:20:05.487Z,12.07
2023-02-17T14:21:11.216Z,12.09
2023-02-17T14:22:31.723Z,12.12
2023-02-17T14:23:52.405Z,12.08
2023-02-17T14:25:08.017Z,12.06
2023-02-17T14:26:16.345Z,12.08
2023-02-17T14:27:19.062Z,12.02
2023-02-17T14:28:26.848Z,12.02
2023-02-17T14:29:46.980Z,12.05
2023-02-17T14:30:49.904Z,12.04
2023-02-17T14:31:53.700Z,12.06
2023-02-17T14:33:26.541Z,12.06
2023-02-17T14:34:32.745Z,12.02
2023-02-17T14:35:36.942Z,12.00
2023-02-17T14:36:40.680Z,12.02
2023-02-17T14:37:43.294Z,11.99
2023-02-17T14:38:55.739Z,11.98
2023-02-17T14:39:57.929Z,11.97
2023-02-17T14:41:01.450Z,11.91
2023-02-17T14:42:05.360Z,11.92
2023-02-17T14:43:08.194Z,11.88
2023-02-17T14:44:10.677Z,11.87
2023-02-17T14:45:15.418Z,11.88
2023-02-17T14:46:19.890Z,11.90
2023-02-17T14:47:23.257Z,11.87
2023-02-17T14:48:27.730Z,11.86
2023-02-17T14:49:31.219Z,11.81
2023-02-17T14:50:35.040Z,11.82